sensor_id;sensor_type;location;lat;lon;timestamp;pressure;altitude;pressure_sealevel;temperature;humidity
7748;BME280;3918;42.564;23.164;2023-03-14T00:01:23;-11650.84;;;-142.29;63.12
7748;BME280;3918;42.564;23.164;2023-03-14T00:03:50;-11650.84;;;-142.29;62.83
7748;BME280;3918;42.564;23.164;2023-03-14T00:06:17;-11650.84;;;-142.29;64.73
7748;BME280;3918;42.564;23.164;2023-03-14T00:08:44;-11650.84;;;-142.29;64.91
7748;BME280;3918;42.564;23.164;2023-03-14T00:11:13;-11650.84;;;-142.29;66.30
7748;BME280;3918;42.564;23.164;2023-03-14T00:13:40;-11650.84;;;-142.29;65.96
7748;BME280;3918;42.564;23.164;2023-03-14T00:16:10;-11650.84;;;-142.29;62.95
7748;BME280;3918;42.564;23.164;2023-03-14T00:18:38;-11650.84;;;-142.29;62.25
7748;BME280;3918;42.564;23.164;2023-03-14T00:21:07;-11650.84;;;-142.29;61.39
7748;BME280;3918;42.564;23.164;2023-03-14T00:23:35;-11650.84;;;-142.29;60.89
7748;BME280;3918;42.564;23.164;2023-03-14T00:26:04;-11650.84;;;-142.29;60.69
7748;BME280;3918;42.564;23.164;2023-03-14T00:28:31;-11650.84;;;-142.29;61.02
7748;BME280;3918;42.564;23.164;2023-03-14T00:30:58;-11650.84;;;-142.29;62.63
7748;BME280;3918;42.564;23.164;2023-03-14T00:33:26;-11650.84;;;-142.29;64.54
7748;BME280;3918;42.564;23.164;2023-03-14T00:35:54;-11650.84;;;-142.29;66.74
7748;BME280;3918;42.564;23.164;2023-03-14T00:38:22;-11650.84;;;-142.29;69.09
7748;BME280;3918;42.564;23.164;2023-03-14T00:40:49;-11650.84;;;-142.29;71.42
7748;BME280;3918;42.564;23.164;2023-03-14T00:43:16;-11650.84;;;-142.29;74.02
7748;BME280;3918;42.564;23.164;2023-03-14T00:45:43;-11650.84;;;-142.29;75.98
7748;BME280;3918;42.564;23.164;2023-03-14T00:48:10;-11650.84;;;-142.29;77.14
7748;BME280;3918;42.564;23.164;2023-03-14T00:50:38;-11650.84;;;-142.29;78.21
7748;BME280;3918;42.564;23.164;2023-03-14T00:53:04;-11650.84;;;-142.29;78.37
7748;BME280;3918;42.564;23.164;2023-03-14T00:55:31;-11650.84;;;-142.29;79.21
7748;BME280;3918;42.564;23.164;2023-03-14T00:57:58;-11650.84;;;-142.29;79.91
7748;BME280;3918;42.564;23.164;2023-03-14T01:00:25;-11650.84;;;-142.29;80.72
7748;BME280;3918;42.564;23.164;2023-03-14T01:02:52;-11650.84;;;-142.29;80.47
7748;BME280;3918;42.564;23.164;2023-03-14T01:05:18;-11650.84;;;-142.29;81.53
7748;BME280;3918;42.564;23.164;2023-03-14T01:07:46;-11650.84;;;-142.29;83.51
7748;BME280;3918;42.564;23.164;2023-03-14T01:10:13;-11650.84;;;-142.29;84.96
7748;BME280;3918;42.564;23.164;2023-03-14T01:12:40;-11650.84;;;-142.29;86.68
7748;BME280;3918;42.564;23.164;2023-03-14T01:15:07;-11650.84;;;-142.29;88.71
7748;BME280;3918;42.564;23.164;2023-03-14T01:17:34;-11650.84;;;-142.29;90.31
7748;BME280;3918;42.564;23.164;2023-03-14T01:20:03;-11650.84;;;-142.29;87.78
7748;BME280;3918;42.564;23.164;2023-03-14T01:22:31;-11650.84;;;-142.29;83.65
7748;BME280;3918;42.564;23.164;2023-03-14T01:24:59;-11650.84;;;-142.29;79.55
7748;BME280;3918;42.564;23.164;2023-03-14T01:27:26;-11650.84;;;-142.29;78.58
7748;BME280;3918;42.564;23.164;2023-03-14T01:29:53;-11650.84;;;-142.29;78.39
7748;BME280;3918;42.564;23.164;2023-03-14T01:32:20;-11650.84;;;-142.29;78.38
7748;BME280;3918;42.564;23.164;2023-03-14T01:34:47;-11650.84;;;-142.29;78.06
7748;BME280;3918;42.564;23.164;2023-03-14T01:37:13;-11650.84;;;-142.29;81.10
7748;BME280;3918;42.564;23.164;2023-03-14T01:39:40;-11650.84;;;-142.29;82.01
7748;BME280;3918;42.564;23.164;2023-03-14T01:42:09;-11650.84;;;-142.29;83.40
7748;BME280;3918;42.564;23.164;2023-03-14T01:44:49;-11650.84;;;-142.29;87.03
7748;BME280;3918;42.564;23.164;2023-03-14T01:47:16;-11650.84;;;-142.29;89.55
7748;BME280;3918;42.564;23.164;2023-03-14T01:49:45;-11650.84;;;-142.29;90.45
7748;BME280;3918;42.564;23.164;2023-03-14T01:52:16;-11650.84;;;-142.29;90.24
7748;BME280;3918;42.564;23.164;2023-03-14T01:54:47;-11650.84;;;-142.29;88.54
7748;BME280;3918;42.564;23.164;2023-03-14T01:57:17;-11650.84;;;-142.29;87.54
7748;BME280;3918;42.564;23.164;2023-03-14T01:59:47;-11650.84;;;-142.29;88.55
7748;BME280;3918;42.564;23.164;2023-03-14T02:02:16;-11650.84;;;-142.29;87.19
7748;BME280;3918;42.564;23.164;2023-03-14T02:04:43;-11650.84;;;-142.29;88.39
7748;BME280;3918;42.564;23.164;2023-03-14T02:07:13;-11650.84;;;-142.29;88.46
7748;BME280;3918;42.564;23.164;2023-03-14T02:09:42;-11650.84;;;-142.29;86.55
7748;BME280;3918;42.564;23.164;2023-03-14T02:12:12;-11650.84;;;-142.29;82.34
7748;BME280;3918;42.564;23.164;2023-03-14T02:14:42;-11650.84;;;-142.29;79.89
7748;BME280;3918;42.564;23.164;2023-03-14T02:17:14;-11650.84;;;-142.29;75.94
7748;BME280;3918;42.564;23.164;2023-03-14T02:20:03;-11650.84;;;-142.29;75.26
7748;BME280;3918;42.564;23.164;2023-03-14T02:22:34;-11650.84;;;-142.29;72.92
7748;BME280;3918;42.564;23.164;2023-03-14T02:25:06;-11650.84;;;-142.29;71.62
7748;BME280;3918;42.564;23.164;2023-03-14T02:27:36;-11650.84;;;-142.29;70.76
7748;BME280;3918;42.564;23.164;2023-03-14T02:30:05;-11650.84;;;-142.29;67.79
7748;BME280;3918;42.564;23.164;2023-03-14T02:32:34;-11650.84;;;-142.29;65.27
7748;BME280;3918;42.564;23.164;2023-03-14T02:35:06;-11650.84;;;-142.29;63.78
7748;BME280;3918;42.564;23.164;2023-03-14T02:37:37;-11650.84;;;-142.29;62.78
7748;BME280;3918;42.564;23.164;2023-03-14T02:40:07;-11650.84;;;-142.29;60.83
7748;BME280;3918;42.564;23.164;2023-03-14T02:42:35;-11650.84;;;-142.29;60.09
7748;BME280;3918;42.564;23.164;2023-03-14T02:45:33;-11650.84;;;-142.29;59.09
7748;BME280;3918;42.564;23.164;2023-03-14T02:48:03;-11650.84;;;-142.29;58.64
7748;BME280;3918;42.564;23.164;2023-03-14T02:50:33;-11650.84;;;-142.29;60.21
7748;BME280;3918;42.564;23.164;2023-03-14T02:53:00;-11650.84;;;-142.29;63.14
7748;BME280;3918;42.564;23.164;2023-03-14T02:55:27;-11650.84;;;-142.29;67.47
7748;BME280;3918;42.564;23.164;2023-03-14T02:57:55;-11650.84;;;-142.29;71.67
7748;BME280;3918;42.564;23.164;2023-03-14T03:00:22;-11650.84;;;-142.29;81.99
7748;BME280;3918;42.564;23.164;2023-03-14T03:02:49;-11650.84;;;-142.29;89.00
7748;BME280;3918;42.564;23.164;2023-03-14T03:05:16;-11650.84;;;-142.29;88.50
7748;BME280;3918;42.564;23.164;2023-03-14T03:07:42;-11650.84;;;-142.29;91.76
7748;BME280;3918;42.564;23.164;2023-03-14T03:10:11;-11650.84;;;-142.29;92.79
7748;BME280;3918;42.564;23.164;2023-03-14T03:12:38;-11650.84;;;-142.29;91.53
7748;BME280;3918;42.564;23.164;2023-03-14T03:15:07;-11650.84;;;-142.29;94.35
7748;BME280;3918;42.564;23.164;2023-03-14T03:17:34;-11650.84;;;-142.29;91.13
7748;BME280;3918;42.564;23.164;2023-03-14T03:20:01;-11650.84;;;-142.29;87.90
7748;BME280;3918;42.564;23.164;2023-03-14T03:22:28;-11650.84;;;-142.29;84.97
7748;BME280;3918;42.564;23.164;2023-03-14T03:24:55;-11650.84;;;-142.29;82.18
7748;BME280;3918;42.564;23.164;2023-03-14T03:27:22;-11650.84;;;-142.29;80.06
7748;BME280;3918;42.564;23.164;2023-03-14T03:29:49;-11650.84;;;-142.29;78.48
7748;BME280;3918;42.564;23.164;2023-03-14T03:32:17;-11650.84;;;-142.29;75.69
7748;BME280;3918;42.564;23.164;2023-03-14T03:34:43;-11650.84;;;-142.29;73.73
7748;BME280;3918;42.564;23.164;2023-03-14T03:37:10;-11650.84;;;-142.29;71.72
7748;BME280;3918;42.564;23.164;2023-03-14T03:39:37;-11650.84;;;-142.29;71.40
7748;BME280;3918;42.564;23.164;2023-03-14T03:42:04;-11650.84;;;-142.29;68.58
7748;BME280;3918;42.564;23.164;2023-03-14T03:44:30;-11650.84;;;-142.29;68.42
7748;BME280;3918;42.564;23.164;2023-03-14T03:46:57;-11650.84;;;-142.29;67.86
7748;BME280;3918;42.564;23.164;2023-03-14T03:49:28;-11650.84;;;-142.29;68.23
7748;BME280;3918;42.564;23.164;2023-03-14T03:51:55;-11650.84;;;-142.29;67.46
7748;BME280;3918;42.564;23.164;2023-03-14T03:54:22;-11650.84;;;-142.29;69.25
7748;BME280;3918;42.564;23.164;2023-03-14T03:56:48;-11650.84;;;-142.29;71.42
7748;BME280;3918;42.564;23.164;2023-03-14T03:59:15;-11650.84;;;-142.29;71.64
7748;BME280;3918;42.564;23.164;2023-03-14T04:01:42;-11650.84;;;-142.29;72.12
7748;BME280;3918;42.564;23.164;2023-03-14T04:04:09;-11650.84;;;-142.29;72.41
7748;BME280;3918;42.564;23.164;2023-03-14T04:06:38;-11650.84;;;-142.29;73.63
7748;BME280;3918;42.564;23.164;2023-03-14T04:09:05;-11650.84;;;-142.29;73.35
7748;BME280;3918;42.564;23.164;2023-03-14T04:11:32;-11650.84;;;-142.29;75.45
7748;BME280;3918;42.564;23.164;2023-03-14T04:13:59;-11650.84;;;-142.29;75.89
7748;BME280;3918;42.564;23.164;2023-03-14T04:16:26;-11650.84;;;-142.29;74.58
7748;BME280;3918;42.564;23.164;2023-03-14T04:18:52;-11650.84;;;-142.29;75.87
7748;BME280;3918;42.564;23.164;2023-03-14T04:21:19;-11650.84;;;-142.29;75.31
7748;BME280;3918;42.564;23.164;2023-03-14T04:23:47;-11650.84;;;-142.29;75.90
7748;BME280;3918;42.564;23.164;2023-03-14T04:26:14;-11650.84;;;-142.29;74.80
7748;BME280;3918;42.564;23.164;2023-03-14T04:28:41;-11650.84;;;-142.29;73.87
7748;BME280;3918;42.564;23.164;2023-03-14T04:31:09;-11650.84;;;-142.29;74.59
7748;BME280;3918;42.564;23.164;2023-03-14T04:33:36;-11650.84;;;-142.29;75.26
7748;BME280;3918;42.564;23.164;2023-03-14T04:36:03;-11650.84;;;-142.29;75.08
7748;BME280;3918;42.564;23.164;2023-03-14T04:38:30;-11650.84;;;-142.29;73.92
7748;BME280;3918;42.564;23.164;2023-03-14T04:40:59;-11650.84;;;-142.29;72.37
7748;BME280;3918;42.564;23.164;2023-03-14T04:43:26;-11650.84;;;-142.29;71.47
7748;BME280;3918;42.564;23.164;2023-03-14T04:45:53;-11650.84;;;-142.29;70.01
7748;BME280;3918;42.564;23.164;2023-03-14T04:48:20;-11650.84;;;-142.29;69.47
7748;BME280;3918;42.564;23.164;2023-03-14T04:50:47;-11650.84;;;-142.29;69.41
7748;BME280;3918;42.564;23.164;2023-03-14T04:53:14;-11650.84;;;-142.29;69.28
7748;BME280;3918;42.564;23.164;2023-03-14T04:55:41;-11650.84;;;-142.29;68.03
7748;BME280;3918;42.564;23.164;2023-03-14T04:58:09;-11650.84;;;-142.29;66.74
7748;BME280;3918;42.564;23.164;2023-03-14T05:00:36;-11650.84;;;-142.29;65.41
7748;BME280;3918;42.564;23.164;2023-03-14T05:03:03;-11650.84;;;-142.29;63.94
7748;BME280;3918;42.564;23.164;2023-03-14T05:05:29;-11650.84;;;-142.29;63.31
7748;BME280;3918;42.564;23.164;2023-03-14T05:07:56;-11650.84;;;-142.29;61.82
7748;BME280;3918;42.564;23.164;2023-03-14T05:10:23;-11650.84;;;-142.29;61.86
7748;BME280;3918;42.564;23.164;2023-03-14T05:12:50;-11650.84;;;-142.29;60.63
7748;BME280;3918;42.564;23.164;2023-03-14T05:15:19;-11650.84;;;-142.29;60.07
7748;BME280;3918;42.564;23.164;2023-03-14T05:17:45;-11650.84;;;-142.29;59.37
7748;BME280;3918;42.564;23.164;2023-03-14T05:20:14;-11650.84;;;-142.29;58.51
7748;BME280;3918;42.564;23.164;2023-03-14T05:22:42;-11650.84;;;-142.29;58.91
7748;BME280;3918;42.564;23.164;2023-03-14T05:25:09;-11650.84;;;-142.29;55.11
7748;BME280;3918;42.564;23.164;2023-03-14T05:27:36;-11650.84;;;-142.29;49.70
7748;BME280;3918;42.564;23.164;2023-03-14T05:30:04;-11650.84;;;-142.29;45.49
7748;BME280;3918;42.564;23.164;2023-03-14T05:32:32;-11650.84;;;-142.29;43.11
7748;BME280;3918;42.564;23.164;2023-03-14T05:34:59;-11650.84;;;-142.29;40.64
7748;BME280;3918;42.564;23.164;2023-03-14T05:37:26;-11650.84;;;-142.29;39.12
7748;BME280;3918;42.564;23.164;2023-03-14T05:39:53;-11650.84;;;-142.29;37.59
7748;BME280;3918;42.564;23.164;2023-03-14T05:42:20;-11650.84;;;-142.29;37.03
7748;BME280;3918;42.564;23.164;2023-03-14T05:44:46;-11650.84;;;-142.29;35.97
7748;BME280;3918;42.564;23.164;2023-03-14T05:47:13;-11650.84;;;-142.29;35.74
7748;BME280;3918;42.564;23.164;2023-03-14T05:49:41;-11650.84;;;-142.29;34.62
7748;BME280;3918;42.564;23.164;2023-03-14T05:52:08;-11650.84;;;-142.29;33.76
7748;BME280;3918;42.564;23.164;2023-03-14T05:54:35;-11650.84;;;-142.29;33.18
7748;BME280;3918;42.564;23.164;2023-03-14T05:57:01;-11650.84;;;-142.29;32.65
7748;BME280;3918;42.564;23.164;2023-03-14T05:59:28;-11650.84;;;-142.29;31.86
7748;BME280;3918;42.564;23.164;2023-03-14T06:01:55;-11650.84;;;-142.29;31.15
7748;BME280;3918;42.564;23.164;2023-03-14T06:04:22;-11650.84;;;-142.29;31.07
7748;BME280;3918;42.564;23.164;2023-03-14T06:06:50;-11650.84;;;-142.29;32.09
7748;BME280;3918;42.564;23.164;2023-03-14T06:09:17;-11650.84;;;-142.29;33.50
7748;BME280;3918;42.564;23.164;2023-03-14T06:11:45;-11650.84;;;-142.29;34.10
7748;BME280;3918;42.564;23.164;2023-03-14T06:14:12;-11650.84;;;-142.29;34.48
7748;BME280;3918;42.564;23.164;2023-03-14T06:16:39;-11650.84;;;-142.29;34.41
7748;BME280;3918;42.564;23.164;2023-03-14T06:19:06;-11650.84;;;-142.29;34.32
7748;BME280;3918;42.564;23.164;2023-03-14T06:21:32;-11650.84;;;-142.29;34.30
7748;BME280;3918;42.564;23.164;2023-03-14T06:24:00;-11650.84;;;-142.29;32.72
7748;BME280;3918;42.564;23.164;2023-03-14T06:26:27;-11650.84;;;-142.29;31.80
7748;BME280;3918;42.564;23.164;2023-03-14T06:28:54;-11650.84;;;-142.29;30.92
7748;BME280;3918;42.564;23.164;2023-03-14T06:31:21;-11650.84;;;-142.29;29.84
7748;BME280;3918;42.564;23.164;2023-03-14T06:33:47;-11650.84;;;-142.29;29.65
7748;BME280;3918;42.564;23.164;2023-03-14T06:36:14;-11650.84;;;-142.29;29.53
7748;BME280;3918;42.564;23.164;2023-03-14T06:38:41;-11650.84;;;-142.29;29.73
7748;BME280;3918;42.564;23.164;2023-03-14T06:41:09;-11650.84;;;-142.29;29.39
7748;BME280;3918;42.564;23.164;2023-03-14T06:43:36;-11650.84;;;-142.29;29.46
7748;BME280;3918;42.564;23.164;2023-03-14T06:46:03;-11650.84;;;-142.29;29.08
7748;BME280;3918;42.564;23.164;2023-03-14T06:48:29;-11650.84;;;-142.29;29.43
7748;BME280;3918;42.564;23.164;2023-03-14T06:50:56;-11650.84;;;-142.29;28.95
7748;BME280;3918;42.564;23.164;2023-03-14T06:53:23;-11650.84;;;-142.29;29.21
7748;BME280;3918;42.564;23.164;2023-03-14T06:55:49;-11650.84;;;-142.29;29.32
7748;BME280;3918;42.564;23.164;2023-03-14T06:58:18;-11650.84;;;-142.29;28.82
7748;BME280;3918;42.564;23.164;2023-03-14T07:00:44;-11650.84;;;-142.29;29.74
7748;BME280;3918;42.564;23.164;2023-03-14T07:03:13;-11650.84;;;-142.29;29.74
7748;BME280;3918;42.564;23.164;2023-03-14T07:05:40;-11650.84;;;-142.29;30.77
7748;BME280;3918;42.564;23.164;2023-03-14T07:08:07;-11650.84;;;-142.29;31.46
7748;BME280;3918;42.564;23.164;2023-03-14T07:10:33;-11650.84;;;-142.29;31.51
7748;BME280;3918;42.564;23.164;2023-03-14T07:13:00;-11650.84;;;-142.29;31.49
7748;BME280;3918;42.564;23.164;2023-03-14T07:15:28;-11650.84;;;-142.29;31.84
7748;BME280;3918;42.564;23.164;2023-03-14T07:17:55;-11650.84;;;-142.29;32.09
7748;BME280;3918;42.564;23.164;2023-03-14T07:20:22;-11650.84;;;-142.29;31.47
7748;BME280;3918;42.564;23.164;2023-03-14T07:22:49;-11650.84;;;-142.29;31.22
7748;BME280;3918;42.564;23.164;2023-03-14T07:25:16;-11650.84;;;-142.29;31.00
7748;BME280;3918;42.564;23.164;2023-03-14T07:27:43;-11650.84;;;-142.29;30.91
7748;BME280;3918;42.564;23.164;2023-03-14T07:30:11;-11650.84;;;-142.29;30.93
7748;BME280;3918;42.564;23.164;2023-03-14T07:32:40;-11650.84;;;-142.29;31.73
7748;BME280;3918;42.564;23.164;2023-03-14T07:35:07;-11650.84;;;-142.29;31.40
7748;BME280;3918;42.564;23.164;2023-03-14T07:37:34;-11650.84;;;-142.29;31.65
7748;BME280;3918;42.564;23.164;2023-03-14T07:40:01;-11650.84;;;-142.29;30.98
7748;BME280;3918;42.564;23.164;2023-03-14T07:42:30;-11650.84;;;-142.29;31.40
7748;BME280;3918;42.564;23.164;2023-03-14T07:44:57;-11650.84;;;-142.29;31.75
7748;BME280;3918;42.564;23.164;2023-03-14T07:47:24;-11650.84;;;-142.29;32.37
7748;BME280;3918;42.564;23.164;2023-03-14T07:49:52;-11650.84;;;-142.29;30.87
7748;BME280;3918;42.564;23.164;2023-03-14T07:52:18;-11650.84;;;-142.29;30.57
7748;BME280;3918;42.564;23.164;2023-03-14T07:54:45;-11650.84;;;-142.29;30.21
7748;BME280;3918;42.564;23.164;2023-03-14T07:57:12;-11650.84;;;-142.29;30.04
7748;BME280;3918;42.564;23.164;2023-03-14T07:59:39;-11650.84;;;-142.29;30.50
7748;BME280;3918;42.564;23.164;2023-03-14T08:02:05;-11650.84;;;-142.29;30.58
7748;BME280;3918;42.564;23.164;2023-03-14T08:04:36;-11650.84;;;-142.29;30.17
7748;BME280;3918;42.564;23.164;2023-03-14T08:07:04;-11650.84;;;-142.29;29.69
7748;BME280;3918;42.564;23.164;2023-03-14T08:09:31;-11650.84;;;-142.29;29.80
7748;BME280;3918;42.564;23.164;2023-03-14T08:11:58;-11650.84;;;-142.29;30.86
7748;BME280;3918;42.564;23.164;2023-03-14T08:14:25;-11650.84;;;-142.29;30.42
7748;BME280;3918;42.564;23.164;2023-03-14T08:16:52;-11650.84;;;-142.29;30.01
7748;BME280;3918;42.564;23.164;2023-03-14T08:19:18;-11650.84;;;-142.29;31.42
7748;BME280;3918;42.564;23.164;2023-03-14T08:21:46;-11650.84;;;-142.29;31.56
7748;BME280;3918;42.564;23.164;2023-03-14T08:24:14;-11650.84;;;-142.29;30.53
7748;BME280;3918;42.564;23.164;2023-03-14T08:26:41;-11650.84;;;-142.29;31.44
7748;BME280;3918;42.564;23.164;2023-03-14T08:29:07;-11650.84;;;-142.29;31.11
7748;BME280;3918;42.564;23.164;2023-03-14T08:31:34;-11650.84;;;-142.29;31.15
7748;BME280;3918;42.564;23.164;2023-03-14T08:34:01;-11650.84;;;-142.29;31.30
7748;BME280;3918;42.564;23.164;2023-03-14T08:36:28;-11650.84;;;-142.29;30.96
7748;BME280;3918;42.564;23.164;2023-03-14T08:38:56;-11650.84;;;-142.29;31.67
7748;BME280;3918;42.564;23.164;2023-03-14T08:41:25;-11650.84;;;-142.29;32.25
7748;BME280;3918;42.564;23.164;2023-03-14T08:43:51;-11650.84;;;-142.29;32.02
7748;BME280;3918;42.564;23.164;2023-03-14T08:46:18;-11650.84;;;-142.29;31.53
7748;BME280;3918;42.564;23.164;2023-03-14T08:48:45;-11650.84;;;-142.29;31.39
7748;BME280;3918;42.564;23.164;2023-03-14T08:51:13;-11650.84;;;-142.29;31.72
7748;BME280;3918;42.564;23.164;2023-03-14T08:53:40;-11650.84;;;-142.29;31.69
7748;BME280;3918;42.564;23.164;2023-03-14T08:56:08;-11650.84;;;-142.29;31.30
7748;BME280;3918;42.564;23.164;2023-03-14T08:58:37;-11650.84;;;-142.29;31.34
7748;BME280;3918;42.564;23.164;2023-03-14T09:01:04;-11650.84;;;-142.29;31.60
7748;BME280;3918;42.564;23.164;2023-03-14T09:03:31;-11650.84;;;-142.29;31.58
7748;BME280;3918;42.564;23.164;2023-03-14T09:06:02;-11650.84;;;-142.29;32.36
7748;BME280;3918;42.564;23.164;2023-03-14T09:08:29;-11650.84;;;-142.29;33.29
7748;BME280;3918;42.564;23.164;2023-03-14T09:10:56;-11650.84;;;-142.29;33.13
7748;BME280;3918;42.564;23.164;2023-03-14T09:13:23;-11650.84;;;-142.29;32.66
7748;BME280;3918;42.564;23.164;2023-03-14T09:15:52;-11650.84;;;-142.29;34.08
7748;BME280;3918;42.564;23.164;2023-03-14T09:18:19;-11650.84;;;-142.29;33.45
7748;BME280;3918;42.564;23.164;2023-03-14T09:20:46;-11650.84;;;-142.29;34.62
7748;BME280;3918;42.564;23.164;2023-03-14T09:23:13;-11650.84;;;-142.29;34.62
7748;BME280;3918;42.564;23.164;2023-03-14T09:25:39;-11650.84;;;-142.29;34.44
7748;BME280;3918;42.564;23.164;2023-03-14T09:28:06;-11650.84;;;-142.29;34.88
7748;BME280;3918;42.564;23.164;2023-03-14T09:30:33;-11650.84;;;-142.29;35.61
7748;BME280;3918;42.564;23.164;2023-03-14T09:33:01;-11650.84;;;-142.29;34.58
7748;BME280;3918;42.564;23.164;2023-03-14T09:35:28;-11650.84;;;-142.29;35.03
7748;BME280;3918;42.564;23.164;2023-03-14T09:37:55;-11650.84;;;-142.29;34.75
7748;BME280;3918;42.564;23.164;2023-03-14T09:40:22;-11650.84;;;-142.29;34.57
7748;BME280;3918;42.564;23.164;2023-03-14T09:42:50;-11650.84;;;-142.29;34.86
7748;BME280;3918;42.564;23.164;2023-03-14T09:45:23;-11650.84;;;-142.29;34.43
7748;BME280;3918;42.564;23.164;2023-03-14T09:47:52;-11650.84;;;-142.29;34.37
7748;BME280;3918;42.564;23.164;2023-03-14T09:50:21;-11650.84;;;-142.29;34.50
7748;BME280;3918;42.564;23.164;2023-03-14T09:52:50;-11650.84;;;-142.29;34.32
7748;BME280;3918;42.564;23.164;2023-03-14T09:55:19;-11650.84;;;-142.29;33.97
7748;BME280;3918;42.564;23.164;2023-03-14T09:57:48;-11650.84;;;-142.29;33.72
7748;BME280;3918;42.564;23.164;2023-03-14T10:00:19;-11650.84;;;-142.29;34.73
7748;BME280;3918;42.564;23.164;2023-03-14T10:02:51;-11650.84;;;-142.29;34.33
7748;BME280;3918;42.564;23.164;2023-03-14T10:05:22;-11650.84;;;-142.29;34.54
7748;BME280;3918;42.564;23.164;2023-03-14T10:07:49;-11650.84;;;-142.29;33.95
7748;BME280;3918;42.564;23.164;2023-03-14T10:10:18;-11650.84;;;-142.29;33.75
7748;BME280;3918;42.564;23.164;2023-03-14T10:12:47;-11650.84;;;-142.29;34.00
7748;BME280;3918;42.564;23.164;2023-03-14T10:15:15;-11650.84;;;-142.29;33.44
7748;BME280;3918;42.564;23.164;2023-03-14T10:17:50;-11650.84;;;-142.29;34.05
7748;BME280;3918;42.564;23.164;2023-03-14T10:20:30;-11650.84;;;-142.29;33.71
7748;BME280;3918;42.564;23.164;2023-03-14T10:22:59;-11650.84;;;-142.29;33.57
7748;BME280;3918;42.564;23.164;2023-03-14T10:25:28;-11650.84;;;-142.29;33.57
7748;BME280;3918;42.564;23.164;2023-03-14T10:27:55;-11650.84;;;-142.29;33.73
7748;BME280;3918;42.564;23.164;2023-03-14T10:30:38;-11650.84;;;-142.29;33.84
7748;BME280;3918;42.564;23.164;2023-03-14T10:33:11;-11650.84;;;-142.29;33.35
7748;BME280;3918;42.564;23.164;2023-03-14T10:35:39;-11650.84;;;-142.29;33.51
7748;BME280;3918;42.564;23.164;2023-03-14T10:38:12;-11650.84;;;-142.29;33.13
7748;BME280;3918;42.564;23.164;2023-03-14T10:40:41;-11650.84;;;-142.29;32.25
7748;BME280;3918;42.564;23.164;2023-03-14T10:43:17;-11650.84;;;-142.29;31.82
7748;BME280;3918;42.564;23.164;2023-03-14T10:45:51;-11650.84;;;-142.29;32.33
7748;BME280;3918;42.564;23.164;2023-03-14T10:48:25;-11650.84;;;-142.29;31.88
7748;BME280;3918;42.564;23.164;2023-03-14T10:50:59;-11650.84;;;-142.29;32.62
7748;BME280;3918;42.564;23.164;2023-03-14T10:53:33;-11650.84;;;-142.29;32.35
7748;BME280;3918;42.564;23.164;2023-03-14T10:56:02;-11650.84;;;-142.29;32.28
7748;BME280;3918;42.564;23.164;2023-03-14T10:58:35;-11650.84;;;-142.29;31.69
7748;BME280;3918;42.564;23.164;2023-03-14T11:01:14;-11650.84;;;-142.29;32.62
7748;BME280;3918;42.564;23.164;2023-03-14T11:03:51;-11650.84;;;-142.29;32.25
7748;BME280;3918;42.564;23.164;2023-03-14T11:06:24;-11650.84;;;-142.29;33.03
7748;BME280;3918;42.564;23.164;2023-03-14T11:08:57;-11650.84;;;-142.29;32.40
7748;BME280;3918;42.564;23.164;2023-03-14T11:11:31;-11650.84;;;-142.29;31.23
7748;BME280;3918;42.564;23.164;2023-03-14T11:14:08;-11650.84;;;-142.29;31.86
7748;BME280;3918;42.564;23.164;2023-03-14T11:16:50;-11650.84;;;-142.29;32.35
7748;BME280;3918;42.564;23.164;2023-03-14T11:19:32;-11650.84;;;-142.29;32.25
7748;BME280;3918;42.564;23.164;2023-03-14T11:22:06;-11650.84;;;-142.29;32.89
7748;BME280;3918;42.564;23.164;2023-03-14T11:24:49;-11650.84;;;-142.29;32.49
7748;BME280;3918;42.564;23.164;2023-03-14T11:27:18;-11650.84;;;-142.29;32.44
7748;BME280;3918;42.564;23.164;2023-03-14T11:29:54;-11650.84;;;-142.29;33.02
7748;BME280;3918;42.564;23.164;2023-03-14T11:32:32;-11650.84;;;-142.29;33.66
7748;BME280;3918;42.564;23.164;2023-03-14T11:35:04;-11650.84;;;-142.29;33.35
7748;BME280;3918;42.564;23.164;2023-03-14T11:37:42;-11650.84;;;-142.29;33.16
7748;BME280;3918;42.564;23.164;2023-03-14T11:40:14;-11650.84;;;-142.29;33.30
7748;BME280;3918;42.564;23.164;2023-03-14T11:42:46;-11650.84;;;-142.29;33.75
7748;BME280;3918;42.564;23.164;2023-03-14T11:45:17;-11650.84;;;-142.29;34.02
7748;BME280;3918;42.564;23.164;2023-03-14T11:47:52;-11650.84;;;-142.29;33.29
7748;BME280;3918;42.564;23.164;2023-03-14T11:50:23;-11650.84;;;-142.29;34.29
7748;BME280;3918;42.564;23.164;2023-03-14T11:52:54;-11650.84;;;-142.29;33.83
7748;BME280;3918;42.564;23.164;2023-03-14T11:55:26;-11650.84;;;-142.29;33.63
7748;BME280;3918;42.564;23.164;2023-03-14T11:58:00;-11650.84;;;-142.29;34.48
7748;BME280;3918;42.564;23.164;2023-03-14T12:00:28;-11650.84;;;-142.29;34.06
7748;BME280;3918;42.564;23.164;2023-03-14T12:02:59;-11650.84;;;-142.29;34.00
7748;BME280;3918;42.564;23.164;2023-03-14T12:05:46;-11650.84;;;-142.29;33.97
7748;BME280;3918;42.564;23.164;2023-03-14T12:08:41;-11650.84;;;-142.29;33.68
7748;BME280;3918;42.564;23.164;2023-03-14T12:11:15;-11650.84;;;-142.29;33.68
7748;BME280;3918;42.564;23.164;2023-03-14T12:13:47;-11650.84;;;-142.29;34.29
7748;BME280;3918;42.564;23.164;2023-03-14T12:16:32;-11650.84;;;-142.29;34.06
7748;BME280;3918;42.564;23.164;2023-03-14T12:19:14;-11650.84;;;-142.29;33.74
7748;BME280;3918;42.564;23.164;2023-03-14T12:21:51;-11650.84;;;-142.29;33.71
7748;BME280;3918;42.564;23.164;2023-03-14T12:24:24;-11650.84;;;-142.29;34.15
7748;BME280;3918;42.564;23.164;2023-03-14T12:26:54;-11650.84;;;-142.29;34.57
7748;BME280;3918;42.564;23.164;2023-03-14T12:29:21;-11650.84;;;-142.29;35.01
7748;BME280;3918;42.564;23.164;2023-03-14T12:31:49;-11650.84;;;-142.29;34.32
7748;BME280;3918;42.564;23.164;2023-03-14T12:34:28;-11650.84;;;-142.29;34.29
7748;BME280;3918;42.564;23.164;2023-03-14T12:37:04;-11650.84;;;-142.29;34.01
7748;BME280;3918;42.564;23.164;2023-03-14T12:39:45;-11650.84;;;-142.29;34.56
7748;BME280;3918;42.564;23.164;2023-03-14T12:42:17;-11650.84;;;-142.29;34.00
7748;BME280;3918;42.564;23.164;2023-03-14T12:44:47;-11650.84;;;-142.29;34.04
7748;BME280;3918;42.564;23.164;2023-03-14T12:50:31;-11650.84;;;-142.29;34.40
7748;BME280;3918;42.564;23.164;2023-03-14T12:56:20;-11650.84;;;-142.29;32.28